sensor_id;sensor_type;location;lat;lon;timestamp;pressure;altitude;pressure_sealevel;temperature;humidity
73600;BME280;61877;48.246;9.220;2022-07-04T00:00:06;94388.22;;;17.08;75.88
73600;BME280;61877;48.246;9.220;2022-07-04T00:02:32;94369.94;;;17.02;76.93
73600;BME280;61877;48.246;9.220;2022-07-04T00:04:58;94363.75;;;17.01;76.76
73600;BME280;61877;48.246;9.220;2022-07-04T00:07:23;94351.75;;;17.02;76.77
73600;BME280;61877;48.246;9.220;2022-07-04T00:09:50;94347.31;;;16.87;76.70
73600;BME280;61877;48.246;9.220;2022-07-04T00:12:16;94341.06;;;16.83;77.22
73600;BME280;61877;48.246;9.220;2022-07-04T00:14:41;94352.22;;;16.74;77.23
73600;BME280;61877;48.246;9.220;2022-07-04T00:17:07;94351.81;;;16.72;76.96
73600;BME280;61877;48.246;9.220;2022-07-04T00:19:33;94344.44;;;16.73;77.66
73600;BME280;61877;48.246;9.220;2022-07-04T00:21:58;94340.91;;;16.69;77.71
73600;BME280;61877;48.246;9.220;2022-07-04T00:24:24;94341.66;;;16.66;77.48
73600;BME280;61877;48.246;9.220;2022-07-04T00:26:51;94338.97;;;16.66;77.54
73600;BME280;61877;48.246;9.220;2022-07-04T00:29:16;94335.09;;;16.67;77.93
73600;BME280;61877;48.246;9.220;2022-07-04T00:31:41;94340.47;;;16.63;77.92
73600;BME280;61877;48.246;9.220;2022-07-04T00:34:07;94345.34;;;16.51;77.71
73600;BME280;61877;48.246;9.220;2022-07-04T00:36:32;94339.78;;;16.44;77.96
73600;BME280;61877;48.246;9.220;2022-07-04T00:38:58;94338.97;;;16.40;78.46
73600;BME280;61877;48.246;9.220;2022-07-04T00:41:23;94335.06;;;16.37;78.57
73600;BME280;61877;48.246;9.220;2022-07-04T00:44:01;94330.44;;;16.38;78.05
73600;BME280;61877;48.246;9.220;2022-07-04T00:46:27;94326.53;;;16.35;77.81
73600;BME280;61877;48.246;9.220;2022-07-04T00:48:52;94319.50;;;16.31;77.96
73600;BME280;61877;48.246;9.220;2022-07-04T00:51:18;94326.00;;;16.23;78.13
73600;BME280;61877;48.246;9.220;2022-07-04T00:53:44;94339.16;;;16.24;78.21
73600;BME280;61877;48.246;9.220;2022-07-04T00:56:10;94331.53;;;16.33;78.17
73600;BME280;61877;48.246;9.220;2022-07-04T00:58:35;94346.00;;;16.44;78.46
73600;BME280;61877;48.246;9.220;2022-07-04T01:01:03;94348.72;;;16.44;77.89
73600;BME280;61877;48.246;9.220;2022-07-04T01:03:29;94340.72;;;16.51;77.62
73600;BME280;61877;48.246;9.220;2022-07-04T01:05:55;94350.38;;;16.52;76.89
73600;BME280;61877;48.246;9.220;2022-07-04T01:08:21;94356.84;;;16.44;77.38
73600;BME280;61877;48.246;9.220;2022-07-04T01:10:46;94351.13;;;16.49;77.52
73600;BME280;61877;48.246;9.220;2022-07-04T01:13:19;94349.16;;;16.46;77.64
73600;BME280;61877;48.246;9.220;2022-07-04T01:15:44;94352.31;;;16.52;78.13
73600;BME280;61877;48.246;9.220;2022-07-04T01:18:11;94353.59;;;16.61;79.03
73600;BME280;61877;48.246;9.220;2022-07-04T01:20:38;94348.91;;;16.92;78.58
73600;BME280;61877;48.246;9.220;2022-07-04T01:23:04;94353.06;;;16.82;80.11
73600;BME280;61877;48.246;9.220;2022-07-04T01:25:30;94353.44;;;16.81;78.91
73600;BME280;61877;48.246;9.220;2022-07-04T01:27:55;94355.03;;;16.85;78.35
73600;BME280;61877;48.246;9.220;2022-07-04T01:30:21;94360.13;;;16.90;78.64
73600;BME280;61877;48.246;9.220;2022-07-04T01:32:46;94361.72;;;16.95;77.82
73600;BME280;61877;48.246;9.220;2022-07-04T01:35:12;94359.72;;;16.88;78.37
73600;BME280;61877;48.246;9.220;2022-07-04T01:37:38;94362.69;;;16.76;78.32
73600;BME280;61877;48.246;9.220;2022-07-04T01:40:05;94362.44;;;16.88;78.39
73600;BME280;61877;48.246;9.220;2022-07-04T01:42:31;94360.81;;;16.84;78.40
73600;BME280;61877;48.246;9.220;2022-07-04T01:44:56;94359.31;;;16.86;77.72
73600;BME280;61877;48.246;9.220;2022-07-04T01:47:21;94362.31;;;16.77;77.85
73600;BME280;61877;48.246;9.220;2022-07-04T01:49:47;94361.94;;;16.79;77.68
73600;BME280;61877;48.246;9.220;2022-07-04T01:52:12;94360.38;;;16.78;77.66
73600;BME280;61877;48.246;9.220;2022-07-04T01:54:39;94358.78;;;16.73;78.07
73600;BME280;61877;48.246;9.220;2022-07-04T01:57:04;94366.47;;;16.68;78.35
73600;BME280;61877;48.246;9.220;2022-07-04T01:59:30;94379.50;;;16.59;78.92
73600;BME280;61877;48.246;9.220;2022-07-04T02:01:55;94374.16;;;16.66;78.86
73600;BME280;61877;48.246;9.220;2022-07-04T02:04:21;94381.00;;;16.56;79.02
73600;BME280;61877;48.246;9.220;2022-07-04T02:06:46;94375.94;;;16.55;79.70
73600;BME280;61877;48.246;9.220;2022-07-04T02:09:11;94381.34;;;16.51;79.76
73600;BME280;61877;48.246;9.220;2022-07-04T02:11:39;94386.78;;;16.55;79.88
73600;BME280;61877;48.246;9.220;2022-07-04T02:14:04;94384.13;;;16.58;79.54
73600;BME280;61877;48.246;9.220;2022-07-04T02:16:30;94385.31;;;16.61;79.20
73600;BME280;61877;48.246;9.220;2022-07-04T02:18:55;94391.16;;;16.63;79.55
73600;BME280;61877;48.246;9.220;2022-07-04T02:21:20;94391.13;;;16.59;79.82
73600;BME280;61877;48.246;9.220;2022-07-04T02:23:46;94384.63;;;16.67;79.38
73600;BME280;61877;48.246;9.220;2022-07-04T02:26:11;94398.13;;;16.64;79.23
73600;BME280;61877;48.246;9.220;2022-07-04T02:28:38;94395.06;;;16.65;79.24
73600;BME280;61877;48.246;9.220;2022-07-04T02:31:03;94399.28;;;16.63;79.18
73600;BME280;61877;48.246;9.220;2022-07-04T02:33:28;94391.94;;;16.63;79.47
73600;BME280;61877;48.246;9.220;2022-07-04T02:35:54;94392.66;;;16.60;79.64
73600;BME280;61877;48.246;9.220;2022-07-04T02:38:19;94391.94;;;16.63;79.06
73600;BME280;61877;48.246;9.220;2022-07-04T02:40:45;94386.06;;;16.58;79.13
73600;BME280;61877;48.246;9.220;2022-07-04T02:43:10;94386.34;;;16.49;79.35
73600;BME280;61877;48.246;9.220;2022-07-04T02:45:37;94389.31;;;16.70;78.57
73600;BME280;61877;48.246;9.220;2022-07-04T02:48:02;94395.16;;;16.72;78.78
73600;BME280;61877;48.246;9.220;2022-07-04T02:50:28;94394.31;;;16.68;78.37
73600;BME280;61877;48.246;9.220;2022-07-04T02:52:53;94397.03;;;16.68;78.75
73600;BME280;61877;48.246;9.220;2022-07-04T02:55:19;94408.19;;;16.63;78.71
73600;BME280;61877;48.246;9.220;2022-07-04T02:57:44;94405.06;;;16.61;78.99
73600;BME280;61877;48.246;9.220;2022-07-04T03:00:11;94401.78;;;16.49;79.81
73600;BME280;61877;48.246;9.220;2022-07-04T03:02:37;94404.00;;;16.43;80.07
73600;BME280;61877;48.246;9.220;2022-07-04T03:05:04;94412.81;;;16.37;80.27
73600;BME280;61877;48.246;9.220;2022-07-04T03:07:29;94405.91;;;16.39;80.76
73600;BME280;61877;48.246;9.220;2022-07-04T03:09:55;94402.44;;;16.42;80.32
73600;BME280;61877;48.246;9.220;2022-07-04T03:12:20;94403.31;;;16.46;80.04
73600;BME280;61877;48.246;9.220;2022-07-04T03:14:45;94400.63;;;16.46;79.91
73600;BME280;61877;48.246;9.220;2022-07-04T03:17:11;94406.34;;;16.45;79.79
73600;BME280;61877;48.246;9.220;2022-07-04T03:19:37;94412.84;;;16.40;79.99
73600;BME280;61877;48.246;9.220;2022-07-04T03:22:03;94407.44;;;16.40;80.11
73600;BME280;61877;48.246;9.220;2022-07-04T03:24:29;94409.25;;;16.55;79.29
73600;BME280;61877;48.246;9.220;2022-07-04T03:26:54;94417.25;;;16.48;80.14
73600;BME280;61877;48.246;9.220;2022-07-04T03:29:19;94426.47;;;16.44;80.04
73600;BME280;61877;48.246;9.220;2022-07-04T03:31:45;94427.25;;;16.44;80.04
73600;BME280;61877;48.246;9.220;2022-07-04T03:34:11;94435.25;;;16.37;80.42
73600;BME280;61877;48.246;9.220;2022-07-04T03:36:37;94443.81;;;16.39;80.44
73600;BME280;61877;48.246;9.220;2022-07-04T03:39:03;94439.38;;;16.28;80.46
73600;BME280;61877;48.246;9.220;2022-07-04T03:41:28;94435.19;;;16.34;80.28
73600;BME280;61877;48.246;9.220;2022-07-04T03:43:54;94432.13;;;16.35;80.42
73600;BME280;61877;48.246;9.220;2022-07-04T03:46:19;94435.19;;;16.34;80.41
73600;BME280;61877;48.246;9.220;2022-07-04T03:48:44;94430.88;;;16.29;81.07
73600;BME280;61877;48.246;9.220;2022-07-04T03:51:10;94429.78;;;16.34;80.47
73600;BME280;61877;48.246;9.220;2022-07-04T03:53:37;94443.94;;;16.24;80.56
73600;BME280;61877;48.246;9.220;2022-07-04T03:56:03;94451.63;;;16.22;80.68
73600;BME280;61877;48.246;9.220;2022-07-04T03:58:29;94454.97;;;16.12;81.01
73600;BME280;61877;48.246;9.220;2022-07-04T04:00:54;94453.78;;;16.09;81.28
73600;BME280;61877;48.246;9.220;2022-07-04T04:03:19;94447.69;;;16.16;81.56
73600;BME280;61877;48.246;9.220;2022-07-04T04:05:45;94447.06;;;16.26;80.75
73600;BME280;61877;48.246;9.220;2022-07-04T04:08:10;94453.41;;;16.59;79.24
73600;BME280;61877;48.246;9.220;2022-07-04T04:10:37;94464.72;;;16.42;79.85
73600;BME280;61877;48.246;9.220;2022-07-04T04:13:02;94466.53;;;16.35;80.17
73600;BME280;61877;48.246;9.220;2022-07-04T04:15:28;94462.66;;;16.32;80.23
73600;BME280;61877;48.246;9.220;2022-07-04T04:17:53;94466.97;;;16.37;80.46
73600;BME280;61877;48.246;9.220;2022-07-04T04:20:18;94471.03;;;16.46;79.53
73600;BME280;61877;48.246;9.220;2022-07-04T04:22:44;94469.56;;;16.52;79.71
73600;BME280;61877;48.246;9.220;2022-07-04T04:25:09;94471.97;;;16.57;80.25
73600;BME280;61877;48.246;9.220;2022-07-04T04:27:36;94474.28;;;16.59;79.81
73600;BME280;61877;48.246;9.220;2022-07-04T04:30:01;94479.47;;;16.67;79.47
73600;BME280;61877;48.246;9.220;2022-07-04T04:32:27;94482.28;;;16.74;79.55
73600;BME280;61877;48.246;9.220;2022-07-04T04:34:52;94486.38;;;16.65;78.93
73600;BME280;61877;48.246;9.220;2022-07-04T04:37:18;94486.84;;;16.70;79.15
73600;BME280;61877;48.246;9.220;2022-07-04T04:39:43;94490.09;;;16.80;79.39
73600;BME280;61877;48.246;9.220;2022-07-04T04:42:09;94478.94;;;16.88;78.73
73600;BME280;61877;48.246;9.220;2022-07-04T04:44:35;94482.13;;;16.94;78.45
73600;BME280;61877;48.246;9.220;2022-07-04T04:47:01;94475.66;;;17.02;78.33
73600;BME280;61877;48.246;9.220;2022-07-04T04:49:26;94480.94;;;17.21;78.02
73600;BME280;61877;48.246;9.220;2022-07-04T04:51:52;94481.22;;;17.12;77.88
73600;BME280;61877;48.246;9.220;2022-07-04T04:54:17;94493.28;;;17.18;77.32
73600;BME280;61877;48.246;9.220;2022-07-04T04:56:43;94484.06;;;17.23;76.72
73600;BME280;61877;48.246;9.220;2022-07-04T04:59:08;94479.56;;;17.34;77.16
73600;BME280;61877;48.246;9.220;2022-07-04T05:01:35;94475.75;;;17.42;76.36
73600;BME280;61877;48.246;9.220;2022-07-04T05:04:00;94472.91;;;17.61;76.31
73600;BME280;61877;48.246;9.220;2022-07-04T05:06:26;94476.19;;;17.77;75.02
73600;BME280;61877;48.246;9.220;2022-07-04T05:08:51;94482.78;;;17.79;75.76
73600;BME280;61877;48.246;9.220;2022-07-04T05:11:17;94479.44;;;17.93;74.85
73600;BME280;61877;48.246;9.220;2022-07-04T05:13:42;94481.38;;;17.96;74.11
73600;BME280;61877;48.246;9.220;2022-07-04T05:16:08;94471.03;;;18.05;74.34
73600;BME280;61877;48.246;9.220;2022-07-04T05:18:34;94473.00;;;18.12;75.15
73600;BME280;61877;48.246;9.220;2022-07-04T05:21:00;94471.81;;;18.09;72.97
73600;BME280;61877;48.246;9.220;2022-07-04T05:23:25;94472.34;;;18.25;72.83
73600;BME280;61877;48.246;9.220;2022-07-04T05:25:51;94465.84;;;18.37;71.64
73600;BME280;61877;48.246;9.220;2022-07-04T05:28:17;94472.22;;;18.55;73.22
73600;BME280;61877;48.246;9.220;2022-07-04T05:30:42;94463.44;;;18.79;69.67
73600;BME280;61877;48.246;9.220;2022-07-04T05:33:08;94462.22;;;18.69;70.15
73600;BME280;61877;48.246;9.220;2022-07-04T05:35:35;94457.13;;;18.64;70.12
73600;BME280;61877;48.246;9.220;2022-07-04T05:38:00;94466.97;;;18.83;70.33
73600;BME280;61877;48.246;9.220;2022-07-04T05:40:26;94469.59;;;18.65;69.14
73600;BME280;61877;48.246;9.220;2022-07-04T05:42:51;94465.72;;;18.70;69.19
73600;BME280;61877;48.246;9.220;2022-07-04T05:45:17;94463.16;;;18.94;68.86
73600;BME280;61877;48.246;9.220;2022-07-04T05:47:42;94458.50;;;19.02;68.33
73600;BME280;61877;48.246;9.220;2022-07-04T05:50:08;94464.34;;;19.00;69.64
73600;BME280;61877;48.246;9.220;2022-07-04T05:52:35;94467.53;;;19.13;69.40
73600;BME280;61877;48.246;9.220;2022-07-04T05:55:00;94465.88;;;18.94;68.38
73600;BME280;61877;48.246;9.220;2022-07-04T05:57:26;94471.94;;;18.74;68.59
73600;BME280;61877;48.246;9.220;2022-07-04T05:59:51;94478.53;;;18.69;67.92
73600;BME280;61877;48.246;9.220;2022-07-04T06:02:17;94489.31;;;18.55;67.33
73600;BME280;61877;48.246;9.220;2022-07-04T06:04:42;94489.31;;;18.59;68.86
73600;BME280;61877;48.246;9.220;2022-07-04T06:07:07;94491.72;;;18.67;67.48
73600;BME280;61877;48.246;9.220;2022-07-04T06:09:34;94499.47;;;18.65;68.44
73600;BME280;61877;48.246;9.220;2022-07-04T06:12:00;94497.53;;;18.66;66.86
73600;BME280;61877;48.246;9.220;2022-07-04T06:14:25;94508.88;;;18.78;71.44
73600;BME280;61877;48.246;9.220;2022-07-04T06:16:51;94502.75;;;18.88;72.70
73600;BME280;61877;48.246;9.220;2022-07-04T06:19:16;94509.00;;;18.99;72.33
73600;BME280;61877;48.246;9.220;2022-07-04T06:21:42;94499.47;;;19.26;71.15
73600;BME280;61877;48.246;9.220;2022-07-04T06:24:07;94506.19;;;19.54;70.56
73600;BME280;61877;48.246;9.220;2022-07-04T06:26:34;94505.44;;;19.60;70.28
73600;BME280;61877;48.246;9.220;2022-07-04T06:28:59;94503.19;;;19.80;68.59
73600;BME280;61877;48.246;9.220;2022-07-04T06:31:25;94501.28;;;19.98;68.64
73600;BME280;61877;48.246;9.220;2022-07-04T06:33:50;94498.22;;;20.17;66.48
73600;BME280;61877;48.246;9.220;2022-07-04T06:36:16;94494.34;;;20.28;66.17
73600;BME280;61877;48.246;9.220;2022-07-04T06:38:41;94497.06;;;20.28;65.22
73600;BME280;61877;48.246;9.220;2022-07-04T06:41:07;94495.50;;;20.41;65.40
73600;BME280;61877;48.246;9.220;2022-07-04T06:43:33;94488.91;;;20.60;63.73
73600;BME280;61877;48.246;9.220;2022-07-04T06:45:59;94490.44;;;20.61;62.49
73600;BME280;61877;48.246;9.220;2022-07-04T06:48:24;94488.09;;;20.77;63.35
73600;BME280;61877;48.246;9.220;2022-07-04T06:50:50;94483.44;;;20.99;61.79
73600;BME280;61877;48.246;9.220;2022-07-04T06:53:15;94481.81;;;21.19;61.38
73600;BME280;61877;48.246;9.220;2022-07-04T06:55:41;94475.91;;;21.31;60.41
73600;BME280;61877;48.246;9.220;2022-07-04T06:58:08;94466.50;;;21.49;59.86
73600;BME280;61877;48.246;9.220;2022-07-04T07:00:35;94463.31;;;21.65;60.48
73600;BME280;61877;48.246;9.220;2022-07-04T07:03:01;94449.25;;;21.63;60.58
73600;BME280;61877;48.246;9.220;2022-07-04T07:05:27;94464.88;;;21.59;58.77
73600;BME280;61877;48.246;9.220;2022-07-04T07:07:56;94460.69;;;21.44;60.59
73600;BME280;61877;48.246;9.220;2022-07-04T07:10:22;94467.19;;;21.64;58.46
73600;BME280;61877;48.246;9.220;2022-07-04T07:12:47;94466.03;;;21.68;58.00
73600;BME280;61877;48.246;9.220;2022-07-04T07:15:13;94471.03;;;21.81;59.58
73600;BME280;61877;48.246;9.220;2022-07-04T07:17:40;94473.25;;;22.07;57.95
73600;BME280;61877;48.246;9.220;2022-07-04T07:20:06;94467.44;;;21.94;55.61
73600;BME280;61877;48.246;9.220;2022-07-04T07:22:32;94466.34;;;21.88;56.63
73600;BME280;61877;48.246;9.220;2022-07-04T07:24:59;94457.50;;;22.25;55.14
73600;BME280;61877;48.246;9.220;2022-07-04T07:27:25;94445.34;;;22.29;54.76
73600;BME280;61877;48.246;9.220;2022-07-04T07:29:51;94449.06;;;22.60;56.28
73600;BME280;61877;48.246;9.220;2022-07-04T07:32:16;94450.09;;;22.73;54.05
73600;BME280;61877;48.246;9.220;2022-07-04T07:34:43;94452.91;;;22.66;54.61
73600;BME280;61877;48.246;9.220;2022-07-04T07:37:08;94452.88;;;23.07;52.34
73600;BME280;61877;48.246;9.220;2022-07-04T07:39:34;94451.13;;;23.27;53.58
73600;BME280;61877;48.246;9.220;2022-07-04T07:42:00;94459.72;;;23.25;55.44
73600;BME280;61877;48.246;9.220;2022-07-04T07:44:25;94452.81;;;23.51;55.46
73600;BME280;61877;48.246;9.220;2022-07-04T07:46:54;94444.22;;;23.79;56.41
73600;BME280;61877;48.246;9.220;2022-07-04T07:49:19;94453.88;;;23.57;54.16
73600;BME280;61877;48.246;9.220;2022-07-04T07:51:46;94444.69;;;23.40;53.98
73600;BME280;61877;48.246;9.220;2022-07-04T07:54:11;94424.06;;;22.95;59.01
73600;BME280;61877;48.246;9.220;2022-07-04T07:56:37;94422.72;;;23.10;58.27
73600;BME280;61877;48.246;9.220;2022-07-04T07:59:02;94429.47;;;23.39;55.62
73600;BME280;61877;48.246;9.220;2022-07-04T08:01:28;94426.44;;;22.93;58.84
73600;BME280;61877;48.246;9.220;2022-07-04T08:03:53;94422.44;;;23.01;57.70
73600;BME280;61877;48.246;9.220;2022-07-04T08:06:18;94409.41;;;23.12;59.09
73600;BME280;61877;48.246;9.220;2022-07-04T08:08:45;94403.75;;;22.96;57.66
73600;BME280;61877;48.246;9.220;2022-07-04T08:11:11;94400.56;;;23.01;56.38
73600;BME280;61877;48.246;9.220;2022-07-04T08:13:37;94393.94;;;22.98;56.48
73600;BME280;61877;48.246;9.220;2022-07-04T08:16:03;94393.22;;;23.58;54.96
73600;BME280;61877;48.246;9.220;2022-07-04T08:18:29;94390.72;;;23.41;54.22
73600;BME280;61877;48.246;9.220;2022-07-04T08:20:54;94376.53;;;23.49;54.57
73600;BME280;61877;48.246;9.220;2022-07-04T08:23:20;94387.72;;;23.28;56.23
73600;BME280;61877;48.246;9.220;2022-07-04T08:25:46;94392.66;;;23.70;55.53
73600;BME280;61877;48.246;9.220;2022-07-04T08:28:12;94390.75;;;23.67;56.58
73600;BME280;61877;48.246;9.220;2022-07-04T08:30:37;94395.50;;;23.90;55.19
73600;BME280;61877;48.246;9.220;2022-07-04T08:33:03;94392.94;;;23.79;55.56
73600;BME280;61877;48.246;9.220;2022-07-04T08:35:31;94398.31;;;24.13;52.79
73600;BME280;61877;48.246;9.220;2022-07-04T08:37:56;94403.50;;;24.07;52.94
73600;BME280;61877;48.246;9.220;2022-07-04T08:40:22;94414.69;;;24.43;51.27
73600;BME280;61877;48.246;9.220;2022-07-04T08:42:49;94405.91;;;23.75;52.67
73600;BME280;61877;48.246;9.220;2022-07-04T08:45:16;94409.25;;;23.86;52.38
73600;BME280;61877;48.246;9.220;2022-07-04T08:47:43;94410.16;;;24.06;55.13
73600;BME280;61877;48.246;9.220;2022-07-04T08:50:10;94411.03;;;24.27;51.80
73600;BME280;61877;48.246;9.220;2022-07-04T08:52:38;94417.22;;;24.07;52.59
73600;BME280;61877;48.246;9.220;2022-07-04T08:55:05;94415.34;;;24.01;52.46
73600;BME280;61877;48.246;9.220;2022-07-04T08:57:30;94408.13;;;23.84;52.63
73600;BME280;61877;48.246;9.220;2022-07-04T08:59:58;94410.00;;;23.30;54.35
73600;BME280;61877;48.246;9.220;2022-07-04T09:02:24;94403.25;;;23.68;55.14
73600;BME280;61877;48.246;9.220;2022-07-04T09:05:00;94405.72;;;23.29;53.20
73600;BME280;61877;48.246;9.220;2022-07-04T09:07:26;94405.09;;;23.48;54.82
73600;BME280;61877;48.246;9.220;2022-07-04T09:09:52;94410.22;;;24.03;54.21
73600;BME280;61877;48.246;9.220;2022-07-04T09:12:19;94410.22;;;24.76;51.67
73600;BME280;61877;48.246;9.220;2022-07-04T09:14:44;94413.78;;;25.15;51.39
73600;BME280;61877;48.246;9.220;2022-07-04T09:17:11;94426.19;;;24.81;51.16
73600;BME280;61877;48.246;9.220;2022-07-04T09:19:37;94420.59;;;24.65;51.95
73600;BME280;61877;48.246;9.220;2022-07-04T09:22:03;94426.94;;;24.85;53.12
73600;BME280;61877;48.246;9.220;2022-07-04T09:24:44;94425.19;;;24.94;51.93
73600;BME280;61877;48.246;9.220;2022-07-04T09:27:10;94432.75;;;24.41;51.25
73600;BME280;61877;48.246;9.220;2022-07-04T09:29:39;94427.84;;;24.78;51.34
73600;BME280;61877;48.246;9.220;2022-07-04T09:32:24;94431.34;;;24.56;51.85
73600;BME280;61877;48.246;9.220;2022-07-04T09:34:54;94439.22;;;25.19;51.10
73600;BME280;61877;48.246;9.220;2022-07-04T09:37:19;94438.38;;;25.22;48.46
73600;BME280;61877;48.246;9.220;2022-07-04T09:39:45;94446.28;;;24.97;50.39
73600;BME280;61877;48.246;9.220;2022-07-04T09:42:10;94449.47;;;24.96;50.38
73600;BME280;61877;48.246;9.220;2022-07-04T09:44:43;94436.94;;;25.37;49.53
73600;BME280;61877;48.246;9.220;2022-07-04T09:47:21;94453.13;;;25.32;50.91
73600;BME280;61877;48.246;9.220;2022-07-04T09:49:57;94451.44;;;25.58;48.37
73600;BME280;61877;48.246;9.220;2022-07-04T09:52:23;94448.09;;;25.86;47.71
73600;BME280;61877;48.246;9.220;2022-07-04T09:54:48;94451.72;;;25.63;49.04
73600;BME280;61877;48.246;9.220;2022-07-04T09:57:21;94457.41;;;25.33;48.47
73600;BME280;61877;48.246;9.220;2022-07-04T09:59:47;94448.75;;;25.34;47.97
73600;BME280;61877;48.246;9.220;2022-07-04T10:02:12;94442.63;;;24.35;51.89
73600;BME280;61877;48.246;9.220;2022-07-04T10:04:44;94445.75;;;24.60;51.91
73600;BME280;61877;48.246;9.220;2022-07-04T10:07:10;94440.69;;;24.58;51.34
73600;BME280;61877;48.246;9.220;2022-07-04T10:09:35;94440.06;;;24.74;51.71
73600;BME280;61877;48.246;9.220;2022-07-04T10:12:00;94439.91;;;25.04;51.43
73600;BME280;61877;48.246;9.220;2022-07-04T10:14:26;94438.84;;;25.60;51.20
73600;BME280;61877;48.246;9.220;2022-07-04T10:16:51;94430.69;;;26.28;47.15
73600;BME280;61877;48.246;9.220;2022-07-04T10:19:17;94429.50;;;26.61;45.55
73600;BME280;61877;48.246;9.220;2022-07-04T10:21:44;94426.50;;;27.86;44.95
73600;BME280;61877;48.246;9.220;2022-07-04T10:24:09;94431.28;;;27.00;43.91
73600;BME280;61877;48.246;9.220;2022-07-04T10:26:36;94431.38;;;26.80;45.15
73600;BME280;61877;48.246;9.220;2022-07-04T10:29:01;94427.94;;;25.92;46.81
73600;BME280;61877;48.246;9.220;2022-07-04T10:31:28;94425.94;;;25.37;47.89
73600;BME280;61877;48.246;9.220;2022-07-04T10:33:55;94432.50;;;25.63;49.76
73600;BME280;61877;48.246;9.220;2022-07-04T10:36:23;94437.63;;;25.61;47.75
73600;BME280;61877;48.246;9.220;2022-07-04T10:38:52;94448.75;;;25.74;48.31
73600;BME280;61877;48.246;9.220;2022-07-04T10:41:19;94435.00;;;25.93;49.14
73600;BME280;61877;48.246;9.220;2022-07-04T10:43:55;94440.53;;;26.09;46.83
73600;BME280;61877;48.246;9.220;2022-07-04T10:49:23;94434.13;;;25.96;46.51
73600;BME280;61877;48.246;9.220;2022-07-04T10:51:50;94438.88;;;26.47;46.19
73600;BME280;61877;48.246;9.220;2022-07-04T10:54:19;94431.47;;;26.77;46.57
73600;BME280;61877;48.246;9.220;2022-07-04T10:56:50;94437.19;;;26.70;44.52
73600;BME280;61877;48.246;9.220;2022-07-04T10:59:18;94434.66;;;26.75;45.41
73600;BME280;61877;48.246;9.220;2022-07-04T11:01:49;94428.88;;;26.37;43.30
73600;BME280;61877;48.246;9.220;2022-07-04T11:04:44;94423.03;;;26.35;46.63
73600;BME280;61877;48.246;9.220;2022-07-04T11:07:10;94430.91;;;26.69;48.55
73600;BME280;61877;48.246;9.220;2022-07-04T11:09:37;94429.28;;;27.45;46.21
73600;BME280;61877;48.246;9.220;2022-07-04T11:12:03;94415.75;;;27.50;43.49
73600;BME280;61877;48.246;9.220;2022-07-04T11:14:34;94422.28;;;28.60;40.94
73600;BME280;61877;48.246;9.220;2022-07-04T11:17:01;94423.13;;;29.94;40.56
73600;BME280;61877;48.246;9.220;2022-07-04T11:19:26;94415.31;;;30.63;36.18
73600;BME280;61877;48.246;9.220;2022-07-04T11:21:52;94421.06;;;30.38;37.21
73600;BME280;61877;48.246;9.220;2022-07-04T11:24:18;94415.38;;;30.81;36.01
73600;BME280;61877;48.246;9.220;2022-07-04T11:26:45;94413.06;;;30.79;37.47
73600;BME280;61877;48.246;9.220;2022-07-04T11:29:12;94413.38;;;30.90;37.79
73600;BME280;61877;48.246;9.220;2022-07-04T11:31:39;94414.47;;;30.84;36.61
73600;BME280;61877;48.246;9.220;2022-07-04T11:34:05;94414.47;;;29.83;36.14
73600;BME280;61877;48.246;9.220;2022-07-04T11:36:30;94415.97;;;30.05;37.71
73600;BME280;61877;48.246;9.220;2022-07-04T11:38:57;94413.75;;;29.27;39.90
73600;BME280;61877;48.246;9.220;2022-07-04T11:41:24;94408.13;;;28.46;42.20
73600;BME280;61877;48.246;9.220;2022-07-04T11:43:51;94411.31;;;27.40;42.41
73600;BME280;61877;48.246;9.220;2022-07-04T11:46:17;94410.34;;;27.47;43.02
73600;BME280;61877;48.246;9.220;2022-07-04T11:48:42;94403.41;;;27.26;43.94
73600;BME280;61877;48.246;9.220;2022-07-04T11:51:16;94402.22;;;27.27;43.83
73600;BME280;61877;48.246;9.220;2022-07-04T11:53:41;94388.91;;;26.49;44.42
73600;BME280;61877;48.246;9.220;2022-07-04T11:56:07;94394.22;;;27.17;43.85
73600;BME280;61877;48.246;9.220;2022-07-04T11:58:38;94396.53;;;27.18;43.38
73600;BME280;61877;48.246;9.220;2022-07-04T12:01:05;94389.66;;;26.98;43.96
73600;BME280;61877;48.246;9.220;2022-07-04T12:03:32;94385.81;;;26.79;43.55
73600;BME280;61877;48.246;9.220;2022-07-04T12:06:00;94392.94;;;26.77;46.41
73600;BME280;61877;48.246;9.220;2022-07-04T12:08:26;94393.06;;;27.02;42.25
73600;BME280;61877;48.246;9.220;2022-07-04T12:10:51;94384.53;;;28.07;40.63
73600;BME280;61877;48.246;9.220;2022-07-04T12:13:17;94376.59;;;28.93;39.86
73600;BME280;61877;48.246;9.220;2022-07-04T12:15:43;94378.25;;;29.68;38.45
73600;BME280;61877;48.246;9.220;2022-07-04T12:18:17;94369.19;;;30.29;36.50
73600;BME280;61877;48.246;9.220;2022-07-04T12:20:42;94370.63;;;30.12;35.71
73600;BME280;61877;48.246;9.220;2022-07-04T12:23:09;94370.63;;;28.11;40.72
73600;BME280;61877;48.246;9.220;2022-07-04T12:25:36;94375.66;;;27.05;43.37
73600;BME280;61877;48.246;9.220;2022-07-04T12:28:04;94372.09;;;27.20;41.63
73600;BME280;61877;48.246;9.220;2022-07-04T12:30:31;94366.22;;;28.13;40.01
73600;BME280;61877;48.246;9.220;2022-07-04T12:32:59;94357.31;;;29.37;39.82
73600;BME280;61877;48.246;9.220;2022-07-04T12:35:42;94367.44;;;29.83;38.18
73600;BME280;61877;48.246;9.220;2022-07-04T12:38:10;94353.19;;;30.82;39.07
73600;BME280;61877;48.246;9.220;2022-07-04T12:40:36;94342.22;;;30.69;38.50
73600;BME280;61877;48.246;9.220;2022-07-04T12:43:02;94346.56;;;31.06;35.70
73600;BME280;61877;48.246;9.220;2022-07-04T12:45:41;94332.25;;;30.99;35.01
73600;BME280;61877;48.246;9.220;2022-07-04T12:48:14;94323.28;;;31.67;35.71
73600;BME280;61877;48.246;9.220;2022-07-04T12:50:41;94315.91;;;31.55;35.46
73600;BME280;61877;48.246;9.220;2022-07-04T12:53:06;94325.88;;;30.53;34.43
73600;BME280;61877;48.246;9.220;2022-07-04T12:55:32;94322.44;;;31.85;36.71
73600;BME280;61877;48.246;9.220;2022-07-04T12:57:57;94323.47;;;31.45;35.14